Time;durP1;ratioP1;P1;durP2;ratioP2;P2;SDS_P1;SDS_P2;PMS_P1;PMS_P2;Temp;Humidity;BMP_temperature;BMP_pressure;BME280_temperature;BME280_humidity;BME280_pressure;Samples;Min_cycle;Max_cycle;Signal;HPM_P1;HPM_P2
2022/02/21 00:00:22;;;;;;;1.67;0.63;;;8.40;99.90;;;;;;5011961;28;20420;-71
2022/02/21 00:02:50;;;;;;;0.77;0.77;;;8.40;99.90;;;;;;5015154;28;20469;-71
2022/02/21 00:05:17;;;;;;;0.80;0.80;;;8.40;99.90;;;;;;5015737;28;20180;-70
2022/02/21 00:07:43;;;;;;;1.10;1.10;;;8.40;99.90;;;;;;5015832;28;20410;-71
2022/02/21 00:10:11;;;;;;;2.70;1.10;;;8.40;99.90;;;;;;5015816;28;20473;-70
2022/02/21 00:12:36;;;;;;;1.20;1.07;;;8.50;99.90;;;;;;5015739;28;20407;-70
2022/02/21 00:15:03;;;;;;;0.90;0.90;;;8.50;99.90;;;;;;5015554;28;20425;-70
2022/02/21 00:17:28;;;;;;;1.27;1.00;;;8.50;99.90;;;;;;5015419;28;20168;-70
2022/02/21 00:19:54;;;;;;;1.00;0.90;;;8.50;99.90;;;;;;5015426;28;20469;-70
2022/02/21 00:22:19;;;;;;;0.60;0.60;;;8.50;99.90;;;;;;5015486;28;20174;-70
2022/02/21 00:24:45;;;;;;;0.80;0.80;;;8.60;99.90;;;;;;5015410;28;20170;-70
2022/02/21 00:27:10;;;;;;;0.70;0.70;;;8.60;99.90;;;;;;5015492;28;20180;-73
2022/02/21 00:29:36;;;;;;;1.93;1.27;;;8.60;99.90;;;;;;5015370;28;20578;-72
2022/02/21 00:32:02;;;;;;;1.23;1.07;;;8.60;99.90;;;;;;5037235;23;20215;-68
2022/02/21 00:34:27;;;;;;;1.70;0.77;;;8.60;99.90;;;;;;5014879;28;20222;-67
2022/02/21 00:36:52;;;;;;;1.00;0.80;;;8.60;99.90;;;;;;5014973;28;20193;-68
2022/02/21 00:39:18;;;;;;;0.80;0.60;;;8.60;99.90;;;;;;5014969;28;20708;-67
2022/02/21 00:41:43;;;;;;;0.70;0.70;;;8.60;99.90;;;;;;5014862;28;20620;-67
2022/02/21 00:44:09;;;;;;;0.70;0.70;;;8.70;99.90;;;;;;5014843;28;20176;-67
2022/02/21 00:46:34;;;;;;;1.10;0.87;;;8.70;99.90;;;;;;5014816;28;20172;-68
2022/02/21 00:49:01;;;;;;;1.00;0.70;;;8.80;99.90;;;;;;5014719;28;20196;-67
2022/02/21 00:51:27;;;;;;;0.80;0.80;;;8.80;99.90;;;;;;5015724;28;20184;-67
2022/02/21 00:53:52;;;;;;;0.93;0.80;;;8.80;99.90;;;;;;5016496;28;20407;-67
2022/02/21 00:56:18;;;;;;;0.77;0.77;;;8.80;99.90;;;;;;5015426;28;20200;-67
2022/02/21 00:58:43;;;;;;;1.67;0.70;;;8.90;99.90;;;;;;5015160;28;20181;-67
2022/02/21 01:01:09;;;;;;;0.77;0.77;;;8.90;99.90;;;;;;5015229;28;20206;-67
2022/02/21 01:03:34;;;;;;;1.40;0.90;;;9.00;99.90;;;;;;5015080;28;20178;-67
2022/02/21 01:06:00;;;;;;;2.63;0.77;;;9.00;99.90;;;;;;5015098;28;20538;-67
2022/02/21 01:08:25;;;;;;;0.90;0.67;;;9.10;99.90;;;;;;5015584;28;20193;-68
2022/02/21 01:10:51;;;;;;;1.37;1.00;;;9.10;99.90;;;;;;5014697;28;20184;-67
2022/02/21 01:13:17;;;;;;;0.90;0.60;;;9.20;99.90;;;;;;5013447;28;20165;-67
2022/02/21 01:15:43;;;;;;;2.00;0.80;;;9.20;99.90;;;;;;5014607;28;20187;-68
2022/02/21 01:18:08;;;;;;;0.60;0.60;;;9.30;99.90;;;;;;5014233;28;20457;-67
2022/02/21 01:20:34;;;;;;;0.60;0.60;;;9.30;99.90;;;;;;5014291;28;20243;-67
2022/02/21 01:22:59;;;;;;;0.70;0.70;;;9.30;99.90;;;;;;5014162;28;20213;-67
2022/02/21 01:25:25;;;;;;;0.60;0.60;;;9.40;99.90;;;;;;5014210;28;20290;-68
2022/02/21 01:27:52;;;;;;;0.60;0.60;;;9.40;99.90;;;;;;4996912;28;20251;-68
2022/02/21 01:30:17;;;;;;;0.70;0.70;;;9.50;99.90;;;;;;5014038;28;20977;-68
2022/02/21 01:32:43;;;;;;;1.10;1.00;;;9.60;99.90;;;;;;5014020;28;20696;-68
2022/02/21 01:35:09;;;;;;;0.60;0.60;;;9.70;99.90;;;;;;5014098;28;20306;-68
2022/02/21 01:37:35;;;;;;;0.70;0.70;;;9.90;99.90;;;;;;5014008;28;20658;-67
2022/02/21 01:40:01;;;;;;;0.80;0.70;;;9.90;99.90;;;;;;4996486;28;20419;-68
2022/02/21 01:42:26;;;;;;;1.73;0.70;;;9.90;99.90;;;;;;5013780;28;20201;-68
2022/02/21 01:44:52;;;;;;;0.60;0.60;;;10.00;99.90;;;;;;5013559;28;20423;-68
2022/02/21 01:47:20;;;;;;;0.60;0.60;;;10.10;99.90;;;;;;5013725;28;20181;-68
2022/02/21 01:49:47;;;;;;;0.83;0.83;;;10.10;99.90;;;;;;5013910;28;20643;-69
2022/02/21 01:52:13;;;;;;;1.00;0.77;;;10.00;99.90;;;;;;5013695;28;20468;-69
2022/02/21 01:54:39;;;;;;;2.30;0.60;;;10.10;99.90;;;;;;5013991;28;20403;-68
2022/02/21 01:57:05;;;;;;;0.97;0.73;;;10.10;99.90;;;;;;5013877;28;20433;-68
2022/02/21 01:59:32;;;;;;;0.80;0.80;;;10.10;99.90;;;;;;5013852;28;20211;-68
2022/02/21 02:01:58;;;;;;;0.70;0.70;;;10.20;99.90;;;;;;5013708;28;20439;-68
2022/02/21 02:04:25;;;;;;;0.60;0.60;;;10.20;99.90;;;;;;5013493;28;20426;-68
2022/02/21 02:06:50;;;;;;;0.70;0.70;;;10.30;99.90;;;;;;5013872;28;20652;-68
2022/02/21 02:09:16;;;;;;;0.97;0.87;;;10.40;99.90;;;;;;5013406;28;20458;-68
2022/02/21 02:11:42;;;;;;;0.60;0.60;;;10.40;99.90;;;;;;5013346;28;20224;-68
2022/02/21 02:14:07;;;;;;;0.60;0.60;;;10.40;99.90;;;;;;5013388;28;20168;-68
2022/02/21 02:16:33;;;;;;;5.70;0.70;;;10.50;99.90;;;;;;5013322;28;20777;-69
2022/02/21 02:18:59;;;;;;;0.87;0.70;;;10.60;99.90;;;;;;5013963;28;20177;-70
2022/02/21 02:21:26;;;;;;;0.60;0.60;;;10.60;99.90;;;;;;5013436;28;20203;-67
2022/02/21 02:23:53;;;;;;;3.83;1.73;;;10.70;99.90;;;;;;5012702;28;20420;-67
2022/02/21 02:26:21;;;;;;;0.90;0.80;;;10.60;99.90;;;;;;5011856;28;20422;-68
2022/02/21 02:28:49;;;;;;;0.60;0.60;;;10.70;99.90;;;;;;5012979;28;20448;-68
2022/02/21 02:31:14;;;;;;;0.70;0.70;;;10.60;99.90;;;;;;5012881;28;20451;-67
2022/02/21 02:33:41;;;;;;;0.57;0.57;;;10.40;99.90;;;;;;5012908;28;20414;-68
2022/02/21 02:36:07;;;;;;;0.57;0.57;;;10.40;99.90;;;;;;5012483;28;20526;-68
2022/02/21 02:38:36;;;;;;;0.60;0.60;;;10.40;99.90;;;;;;5013091;28;20411;-68
2022/02/21 02:41:04;;;;;;;0.53;0.53;;;10.20;99.90;;;;;;5012447;28;20435;-68
2022/02/21 02:43:30;;;;;;;0.50;0.50;;;9.90;99.90;;;;;;5012600;28;20411;-68
2022/02/21 02:45:55;;;;;;;2.10;0.70;;;9.30;99.90;;;;;;5012185;28;20823;-69
2022/02/21 02:48:21;;;;;;;0.60;0.60;;;9.00;99.90;;;;;;5012890;28;20201;-69
2022/02/21 02:50:46;;;;;;;1.23;0.70;;;8.90;99.90;;;;;;5012598;28;20212;-69
2022/02/21 02:53:12;;;;;;;0.93;0.60;;;8.90;99.90;;;;;;5012373;28;20193;-69
2022/02/21 02:55:37;;;;;;;0.60;0.50;;;8.70;99.90;;;;;;5012200;28;20172;-69
2022/02/21 02:58:03;;;;;;;0.60;0.60;;;8.70;99.90;;;;;;5012098;28;20169;-68
2022/02/21 03:00:28;;;;;;;0.60;0.60;;;8.70;99.90;;;;;;5012026;28;20187;-68
2022/02/21 03:02:54;;;;;;;0.80;0.80;;;8.50;99.90;;;;;;5012070;28;20261;-68
2022/02/21 03:05:20;;;;;;;0.70;0.70;;;8.40;99.90;;;;;;5012119;28;20618;-68
2022/02/21 03:07:46;;;;;;;0.60;0.60;;;8.30;99.90;;;;;;5012398;28;20173;-68
2022/02/21 03:10:11;;;;;;;0.90;0.80;;;8.20;99.90;;;;;;5012239;28;20972;-67
2022/02/21 03:12:37;;;;;;;0.60;0.60;;;8.10;99.90;;;;;;5012305;28;20215;-68
2022/02/21 03:15:02;;;;;;;0.60;0.60;;;8.10;99.90;;;;;;5012203;28;20222;-69
2022/02/21 03:17:28;;;;;;;0.70;0.60;;;8.00;99.90;;;;;;5012227;28;20526;-68
2022/02/21 03:19:53;;;;;;;0.80;0.80;;;7.90;99.90;;;;;;5012176;28;20544;-68
2022/02/21 03:22:19;;;;;;;0.60;0.60;;;7.90;99.90;;;;;;5012516;28;20188;-68
2022/02/21 03:24:44;;;;;;;0.60;0.60;;;7.90;99.90;;;;;;5011917;28;20187;-69
2022/02/21 03:27:10;;;;;;;0.60;0.60;;;7.90;99.90;;;;;;5012204;28;20242;-69
2022/02/21 03:29:35;;;;;;;0.60;0.60;;;7.90;99.90;;;;;;5012045;28;20200;-68
2022/02/21 03:32:01;;;;;;;0.77;0.73;;;7.90;99.90;;;;;;5011803;28;20278;-71
2022/02/21 03:34:26;;;;;;;0.67;0.67;;;7.80;99.90;;;;;;5012179;28;20164;-68
2022/02/21 03:36:51;;;;;;;1.07;0.60;;;7.80;99.90;;;;;;5011344;28;20258;-68
2022/02/21 03:39:17;;;;;;;0.60;0.60;;;7.80;99.90;;;;;;5011779;28;20172;-68
2022/02/21 03:41:43;;;;;;;3.13;0.60;;;7.80;99.90;;;;;;5011821;28;20295;-68
2022/02/21 03:44:08;;;;;;;0.70;0.60;;;7.80;99.90;;;;;;5011953;28;20172;-68
2022/02/21 03:46:37;;;;;;;0.60;0.60;;;7.70;99.90;;;;;;5011845;28;20168;-68
2022/02/21 03:49:03;;;;;;;0.70;0.70;;;7.70;99.90;;;;;;5011828;28;20272;-68
2022/02/21 03:51:29;;;;;;;0.90;0.73;;;7.70;99.90;;;;;;5011762;28;20424;-68
2022/02/21 03:53:54;;;;;;;0.60;0.60;;;7.70;99.90;;;;;;5011706;28;20418;-68
2022/02/21 03:56:20;;;;;;;0.60;0.60;;;7.70;99.90;;;;;;5011676;28;20177;-68
2022/02/21 03:58:45;;;;;;;0.60;0.60;;;7.70;99.90;;;;;;5012160;28;20189;-69
2022/02/21 04:01:11;;;;;;;0.60;0.60;;;7.70;99.90;;;;;;5011944;28;20188;-68
2022/02/21 04:03:37;;;;;;;0.60;0.60;;;7.70;99.90;;;;;;5011906;28;20537;-68
2022/02/21 04:06:02;;;;;;;0.60;0.60;;;7.70;99.90;;;;;;5012012;28;20516;-68
2022/02/21 04:08:28;;;;;;;0.60;0.60;;;7.70;99.90;;;;;;5011843;28;20219;-68
2022/02/21 04:10:53;;;;;;;0.60;0.60;;;7.70;99.90;;;;;;5011758;28;20373;-68
2022/02/21 04:13:18;;;;;;;0.60;0.60;;;7.70;99.90;;;;;;5011840;28;20168;-69
2022/02/21 04:15:44;;;;;;;1.03;1.03;;;7.70;99.90;;;;;;5011783;28;20189;-69
2022/02/21 04:18:09;;;;;;;2.77;0.77;;;7.70;99.90;;;;;;5011655;28;20168;-68
2022/02/21 04:20:35;;;;;;;0.60;0.60;;;7.70;99.90;;;;;;5011722;28;20275;-68
2022/02/21 04:23:00;;;;;;;0.60;0.60;;;7.60;99.90;;;;;;5011508;28;20643;-68
2022/02/21 04:25:26;;;;;;;0.60;0.60;;;7.60;99.90;;;;;;5011787;28;20195;-68
2022/02/21 04:27:54;;;;;;;0.53;0.53;;;7.70;99.90;;;;;;5011765;28;20526;-68
2022/02/21 04:30:22;;;;;;;0.70;0.70;;;7.60;99.90;;;;;;5011325;28;20689;-68
2022/02/21 04:32:49;;;;;;;0.60;0.60;;;7.60;99.90;;;;;;5011681;28;20419;-68
2022/02/21 04:35:17;;;;;;;0.60;0.60;;;7.60;99.90;;;;;;5011714;28;20941;-68
2022/02/21 04:37:43;;;;;;;0.60;0.60;;;7.50;99.90;;;;;;5011557;28;20404;-68
2022/02/21 04:40:12;;;;;;;0.70;0.70;;;7.50;99.90;;;;;;5011402;28;20466;-68
2022/02/21 04:42:38;;;;;;;0.80;0.80;;;7.50;99.90;;;;;;5011382;28;20438;-68
2022/02/21 04:45:05;;;;;;;0.70;0.70;;;7.50;99.90;;;;;;5011450;28;20486;-68
2022/02/21 04:47:30;;;;;;;0.60;0.60;;;7.50;99.90;;;;;;5012384;28;20478;-69
2022/02/21 04:49:56;;;;;;;0.60;0.60;;;7.30;99.90;;;;;;5014845;28;20518;-69
2022/02/21 04:52:21;;;;;;;0.60;0.60;;;7.10;99.90;;;;;;5014807;28;20184;-69
2022/02/21 04:54:47;;;;;;;0.60;0.60;;;7.10;99.90;;;;;;5014744;28;20203;-69
2022/02/21 04:57:13;;;;;;;4.40;0.80;;;7.10;99.90;;;;;;5014865;28;20176;-68
2022/02/21 04:59:38;;;;;;;1.70;0.90;;;7.10;99.90;;;;;;5014901;28;20165;-69
2022/02/21 05:02:04;;;;;;;1.10;0.70;;;7.10;99.90;;;;;;5014587;28;20534;-68
2022/02/21 05:04:30;;;;;;;8.43;0.77;;;7.10;99.90;;;;;;5014657;28;20707;-68
2022/02/21 05:06:55;;;;;;;1.03;0.60;;;7.10;99.90;;;;;;4997008;28;20510;-70
2022/02/21 05:09:21;;;;;;;0.60;0.60;;;7.00;99.90;;;;;;5014459;28;20204;-69
2022/02/21 05:11:46;;;;;;;0.50;0.50;;;7.00;99.90;;;;;;5014446;28;20274;-67
2022/02/21 05:14:12;;;;;;;1.20;0.63;;;6.90;99.90;;;;;;5014510;28;20164;-68
2022/02/21 05:16:37;;;;;;;0.70;0.70;;;6.90;99.90;;;;;;5014442;28;20165;-67
2022/02/21 05:19:03;;;;;;;0.60;0.60;;;6.90;99.90;;;;;;5014409;28;20361;-68
2022/02/21 05:21:30;;;;;;;0.60;0.60;;;6.90;99.90;;;;;;5014369;28;20203;-68
2022/02/21 05:23:56;;;;;;;0.63;0.63;;;6.90;99.90;;;;;;5014345;28;20185;-68
2022/02/21 05:26:22;;;;;;;0.70;0.70;;;6.90;99.90;;;;;;5014198;28;20411;-67
2022/02/21 05:28:47;;;;;;;0.80;0.73;;;6.90;99.90;;;;;;5015427;28;20447;-67
2022/02/21 05:31:13;;;;;;;0.77;0.77;;;6.90;99.90;;;;;;5014491;28;20463;-68
2022/02/21 05:33:38;;;;;;;0.77;0.73;;;6.90;99.90;;;;;;5014044;28;20244;-68
2022/02/21 05:36:04;;;;;;;0.80;0.60;;;6.70;99.90;;;;;;5014163;28;20172;-68
2022/02/21 05:38:29;;;;;;;0.60;0.60;;;6.70;99.90;;;;;;5014166;28;20705;-68
2022/02/21 05:40:55;;;;;;;0.60;0.60;;;6.70;99.90;;;;;;5014008;28;20207;-68
2022/02/21 05:43:20;;;;;;;1.53;0.80;;;6.70;99.90;;;;;;5014089;28;20187;-68
2022/02/21 05:45:46;;;;;;;2.43;0.80;;;6.60;99.90;;;;;;5013820;28;20176;-68
2022/02/21 05:48:11;;;;;;;0.70;0.60;;;6.70;99.90;;;;;;5013812;28;20183;-69
2022/02/21 05:50:37;;;;;;;1.37;0.70;;;6.60;99.90;;;;;;5014013;28;20547;-68
2022/02/21 05:53:02;;;;;;;0.70;0.70;;;6.60;99.90;;;;;;5013862;28;20168;-68
2022/02/21 05:55:28;;;;;;;3.10;1.10;;;6.60;99.90;;;;;;5013812;28;20168;-68
2022/02/21 05:57:57;;;;;;;1.17;0.70;;;6.60;99.90;;;;;;5013784;28;20541;-68
2022/02/21 06:00:23;;;;;;;0.87;0.87;;;6.50;99.90;;;;;;5013058;28;20176;-68
2022/02/21 06:02:49;;;;;;;0.77;0.77;;;6.50;99.90;;;;;;5013685;28;20415;-67
2022/02/21 06:05:14;;;;;;;0.97;0.87;;;6.40;99.90;;;;;;4996288;28;20463;-68
2022/02/21 06:07:40;;;;;;;0.97;0.87;;;6.40;99.90;;;;;;5013704;28;20181;-68
2022/02/21 06:10:05;;;;;;;1.47;0.60;;;6.40;99.90;;;;;;5013937;28;20250;-68
2022/02/21 06:12:31;;;;;;;0.60;0.60;;;6.40;99.90;;;;;;5013502;28;20593;-69
2022/02/21 06:14:57;;;;;;;3.93;0.90;;;6.40;99.90;;;;;;5013680;28;20766;-69
2022/02/21 06:17:23;;;;;;;1.03;0.93;;;6.30;99.90;;;;;;5013893;28;20487;-69
2022/02/21 06:19:48;;;;;;;0.70;0.70;;;6.20;99.90;;;;;;5014326;28;20194;-69
2022/02/21 06:22:13;;;;;;;5.17;0.90;;;5.90;99.90;;;;;;5014693;28;20207;-69
2022/02/21 06:24:39;;;;;;;1.87;1.00;;;5.80;99.90;;;;;;5014521;28;20172;-68
2022/02/21 06:27:04;;;;;;;1.10;0.80;;;5.70;99.90;;;;;;5014693;28;20211;-68
2022/02/21 06:29:30;;;;;;;1.13;1.00;;;5.70;99.90;;;;;;5013424;28;20674;-68
2022/02/21 06:31:55;;;;;;;0.80;0.80;;;5.60;99.90;;;;;;5013966;28;20196;-67
2022/02/21 06:34:21;;;;;;;2.40;0.90;;;5.60;99.90;;;;;;5013209;28;20430;-67
2022/02/21 06:36:46;;;;;;;0.73;0.73;;;5.50;99.90;;;;;;5013485;28;20168;-68
2022/02/21 06:39:12;;;;;;;2.60;2.40;;;5.60;99.90;;;;;;5013281;28;20164;-68
2022/02/21 06:41:37;;;;;;;0.90;0.90;;;5.50;99.90;;;;;;5013015;28;20204;-68
2022/02/21 06:44:03;;;;;;;4.20;0.90;;;5.40;99.90;;;;;;5012966;28;20168;-68
2022/02/21 06:46:29;;;;;;;1.37;0.87;;;5.40;99.90;;;;;;5012635;28;20230;-68
2022/02/21 06:48:54;;;;;;;0.97;0.90;;;5.30;99.90;;;;;;5012688;28;20200;-69
2022/02/21 06:51:19;;;;;;;2.50;1.53;;;5.30;99.90;;;;;;5012765;28;20250;-68
2022/02/21 06:53:45;;;;;;;2.20;1.10;;;5.30;99.90;;;;;;5012800;28;20176;-68
2022/02/21 06:56:10;;;;;;;1.80;1.20;;;5.30;99.90;;;;;;5012719;28;20164;-68
2022/02/21 06:58:36;;;;;;;1.87;1.00;;;5.20;99.90;;;;;;5012949;28;20554;-68
2022/02/21 07:01:02;;;;;;;0.73;0.73;;;5.20;99.90;;;;;;5012661;28;20322;-68
2022/02/21 07:03:27;;;;;;;4.03;0.93;;;5.30;99.90;;;;;;4994841;28;20231;-68
2022/02/21 07:05:53;;;;;;;1.70;1.33;;;5.30;99.90;;;;;;5012552;28;20422;-69
2022/02/21 07:08:18;;;;;;;1.20;1.03;;;5.30;99.90;;;;;;5012605;28;20647;-68
2022/02/21 07:10:44;;;;;;;1.20;0.90;;;5.20;99.90;;;;;;5011839;28;20231;-68
2022/02/21 07:13:10;;;;;;;1.50;1.40;;;5.30;99.90;;;;;;5012381;28;20218;-68
2022/02/21 07:15:35;;;;;;;2.67;0.93;;;5.30;99.90;;;;;;5012202;28;20230;-68
2022/02/21 07:18:00;;;;;;;2.37;1.50;;;5.30;99.90;;;;;;5012382;28;20247;-69
2022/02/21 07:20:26;;;;;;;3.13;1.47;;;5.30;99.90;;;;;;5012248;28;20164;-69
2022/02/21 07:22:52;;;;;;;0.77;0.77;;;5.40;99.90;;;;;;5012472;28;20581;-69
2022/02/21 07:25:18;;;;;;;0.80;0.80;;;5.30;99.90;;;;;;5012128;28;20417;-69
2022/02/21 07:27:51;;;;;;;1.20;1.10;;;5.00;99.90;;;;;;5012375;28;20176;-67
2022/02/21 07:30:19;;;;;;;1.27;1.17;;;5.00;99.90;;;;;;5011990;28;20212;-67
2022/02/21 07:32:45;;;;;;;1.10;1.00;;;4.80;99.90;;;;;;4994492;28;20479;-68
2022/02/21 07:35:11;;;;;;;0.90;0.90;;;4.60;99.90;;;;;;5012591;28;20906;-67
2022/02/21 07:37:41;;;;;;;2.30;1.40;;;4.50;99.90;;;;;;4994778;28;20967;-69
2022/02/21 07:40:08;;;;;;;2.93;1.20;;;4.50;99.90;;;;;;5012250;28;20407;-68
2022/02/21 07:42:34;;;;;;;1.27;1.17;;;4.70;99.90;;;;;;5011779;28;20573;-68
2022/02/21 07:45:00;;;;;;;1.00;0.87;;;5.00;99.90;;;;;;5011844;28;20977;-69
2022/02/21 07:47:26;;;;;;;2.10;1.20;;;5.10;99.90;;;;;;5012055;28;20411;-68
2022/02/21 07:49:51;;;;;;;2.57;1.97;;;5.50;99.90;;;;;;5012042;28;20480;-68
2022/02/21 07:52:16;;;;;;;3.03;1.53;;;5.80;99.90;;;;;;5012040;28;20180;-68
2022/02/21 07:54:42;;;;;;;1.37;1.03;;;6.00;99.90;;;;;;5011968;28;20172;-68
2022/02/21 07:57:08;;;;;;;4.50;1.73;;;6.10;99.90;;;;;;5012095;28;20178;-68
2022/02/21 07:59:34;;;;;;;3.70;0.97;;;6.20;99.90;;;;;;5011687;28;20173;-69
2022/02/21 08:01:59;;;;;;;1.07;0.97;;;5.70;99.90;;;;;;5011596;28;20798;-68
2022/02/21 08:04:25;;;;;;;3.33;1.03;;;5.90;99.90;;;;;;5011760;28;20187;-68
2022/02/21 08:06:51;;;;;;;1.07;0.97;;;5.80;99.90;;;;;;5011727;28;20179;-68
2022/02/21 08:09:18;;;;;;;4.03;0.83;;;6.00;99.90;;;;;;5011532;28;20443;-68
2022/02/21 08:11:43;;;;;;;2.40;1.50;;;6.00;99.90;;;;;;5012182;28;20492;-68
2022/02/21 08:14:10;;;;;;;1.73;1.63;;;6.20;99.90;;;;;;5011995;28;20410;-68
2022/02/21 08:16:35;;;;;;;3.93;1.07;;;6.20;99.90;;;;;;4994779;28;20172;-68
2022/02/21 08:19:01;;;;;;;1.10;0.93;;;6.20;99.90;;;;;;5012244;28;20404;-68
2022/02/21 08:21:26;;;;;;;4.63;1.33;;;6.60;99.90;;;;;;5011825;28;20201;-69
2022/02/21 08:23:52;;;;;;;5.50;1.00;;;7.00;99.90;;;;;;5015372;28;20172;-69
2022/02/21 08:26:17;;;;;;;2.40;1.07;;;6.80;99.90;;;;;;5015619;28;20199;-69
2022/02/21 08:28:42;;;;;;;3.27;3.07;;;6.90;99.90;;;;;;5015407;28;20200;-69
2022/02/21 08:31:08;;;;;;;6.50;1.47;;;6.80;99.90;;;;;;5015232;28;20322;-69
2022/02/21 08:33:33;;;;;;;1.30;1.20;;;7.10;99.90;;;;;;5015539;28;20276;-67
2022/02/21 08:35:59;;;;;;;0.80;0.60;;;8.00;99.90;;;;;;5015193;28;20714;-67
2022/02/21 08:38:25;;;;;;;3.27;0.77;;;7.80;99.90;;;;;;5015582;28;20172;-68
2022/02/21 08:40:50;;;;;;;1.20;0.90;;;7.30;99.90;;;;;;5015334;28;20652;-68
2022/02/21 08:43:16;;;;;;;0.80;0.80;;;7.50;99.90;;;;;;5015457;28;20411;-68
2022/02/21 08:45:41;;;;;;;1.00;0.90;;;6.70;99.90;;;;;;5014920;28;20173;-68
2022/02/21 08:48:07;;;;;;;1.80;1.10;;;6.80;99.90;;;;;;5015331;28;20165;-68
2022/02/21 08:50:33;;;;;;;2.43;1.53;;;6.40;99.90;;;;;;5014888;28;20204;-69
2022/02/21 08:52:58;;;;;;;1.17;1.07;;;6.60;99.90;;;;;;5014893;28;20568;-69
2022/02/21 08:55:24;;;;;;;1.30;1.00;;;6.50;99.90;;;;;;5014771;28;20415;-68
2022/02/21 08:57:49;;;;;;;1.77;0.80;;;6.40;99.90;;;;;;5014825;28;20241;-68
2022/02/21 09:00:16;;;;;;;4.53;0.90;;;6.40;99.90;;;;;;5014628;28;20183;-68
2022/02/21 09:02:44;;;;;;;1.13;0.70;;;7.20;99.90;;;;;;5014844;28;20240;-68
2022/02/21 09:05:11;;;;;;;2.50;1.17;;;7.40;99.90;;;;;;5014611;28;20406;-68
2022/02/21 09:07:37;;;;;;;1.17;0.80;;;6.80;99.90;;;;;;5014997;28;20784;-68
2022/02/21 09:10:04;;;;;;;0.60;0.60;;;7.00;99.90;;;;;;5014650;28;20453;-68
2022/02/21 09:12:29;;;;;;;3.30;1.63;;;6.70;99.90;;;;;;5014434;28;20420;-68
2022/02/21 09:14:56;;;;;;;4.30;1.10;;;6.90;99.90;;;;;;5014409;28;20399;-68
2022/02/21 09:17:22;;;;;;;1.93;1.10;;;7.00;99.90;;;;;;5014627;28;20176;-68
2022/02/21 09:19:48;;;;;;;7.30;2.20;;;6.70;99.90;;;;;;5014444;28;20411;-68
2022/02/21 09:22:13;;;;;;;6.23;0.90;;;6.30;99.90;;;;;;5014240;28;20215;-68
2022/02/21 09:24:39;;;;;;;0.70;0.70;;;6.40;99.90;;;;;;5014611;28;20168;-68
2022/02/21 09:27:05;;;;;;;0.93;0.77;;;6.70;99.90;;;;;;5014390;28;20172;-68
2022/02/21 09:29:32;;;;;;;9.07;1.03;;;6.80;99.90;;;;;;5014931;28;20224;-68
2022/02/21 09:31:58;;;;;;;1.27;0.90;;;6.50;99.90;;;;;;5014552;28;20458;-68
2022/02/21 09:34:24;;;;;;;0.80;0.80;;;6.40;99.90;;;;;;5013252;28;20407;-68
2022/02/21 09:36:49;;;;;;;2.47;1.00;;;6.70;99.90;;;;;;4996560;28;20774;-68
2022/02/21 09:39:15;;;;;;;1.90;0.80;;;6.60;99.90;;;;;;5014090;28;20437;-68
2022/02/21 09:41:40;;;;;;;1.23;0.70;;;6.40;99.90;;;;;;5014057;28;20263;-68
2022/02/21 09:44:09;;;;;;;8.23;1.00;;;6.60;99.90;;;;;;5014387;28;20172;-68
2022/02/21 09:46:35;;;;;;;3.03;0.77;;;6.40;99.90;;;;;;5013996;28;20403;-69
2022/02/21 09:49:01;;;;;;;1.17;1.07;;;6.30;99.90;;;;;;4996295;28;20554;-69
2022/02/21 09:51:26;;;;;;;12.23;1.13;;;6.20;99.90;;;;;;5013908;28;20523;-68
2022/02/21 09:53:53;;;;;;;1.17;0.80;;;6.50;99.90;;;;;;5014136;28;20172;-68
2022/02/21 09:56:18;;;;;;;0.80;0.80;;;6.50;99.90;;;;;;5013980;28;20577;-69
2022/02/21 09:58:44;;;;;;;2.07;0.87;;;6.70;99.90;;;;;;5013953;28;20415;-67
2022/02/21 10:01:10;;;;;;;4.10;1.20;;;6.60;99.90;;;;;;5014049;28;20344;-69
2022/02/21 10:03:39;;;;;;;0.80;0.73;;;6.60;99.90;;;;;;5013802;28;20222;-69
2022/02/21 10:06:11;;;;;;;0.70;0.70;;;6.60;99.90;;;;;;5013906;28;20400;-68
2022/02/21 10:08:48;;;;;;;1.83;1.30;;;6.70;99.90;;;;;;5014273;28;20451;-69
2022/02/21 10:11:25;;;;;;;1.93;0.87;;;6.50;99.90;;;;;;5014296;28;20431;-68
2022/02/21 10:13:58;;;;;;;1.60;1.27;;;6.40;99.90;;;;;;5014148;28;20474;-68
2022/02/21 10:16:24;;;;;;;0.80;0.70;;;6.50;99.90;;;;;;5014071;28;20503;-69
2022/02/21 10:19:10;;;;;;;10.93;1.33;;;6.70;99.90;;;;;;5014226;28;20411;-69
2022/02/21 10:21:59;;;;;;;1.10;1.00;;;6.90;99.90;;;;;;5014520;28;20412;-68
2022/02/21 10:24:46;;;;;;;1.00;0.80;;;6.70;99.90;;;;;;5014834;28;20412;-69
2022/02/21 10:27:14;;;;;;;1.63;0.90;;;6.40;99.90;;;;;;5014616;28;20415;-68
2022/02/21 10:30:00;;;;;;;2.10;1.03;;;6.40;99.90;;;;;;5013683;28;20965;-69
2022/02/21 10:32:28;;;;;;;2.97;0.97;;;6.40;99.90;;;;;;5013138;28;20451;-68
2022/02/21 10:34:55;;;;;;;1.37;1.27;;;6.50;99.90;;;;;;5013195;28;20411;-69
2022/02/21 10:37:25;;;;;;;0.70;0.70;;;6.40;99.90;;;;;;5013172;28;20403;-69
2022/02/21 10:40:07;;;;;;;3.80;0.83;;;6.40;99.90;;;;;;5012942;28;20399;-69
2022/02/21 10:42:32;;;;;;;0.90;0.90;;;6.40;99.90;;;;;;5013335;28;20434;-69
2022/02/21 10:45:11;;;;;;;1.30;0.83;;;6.60;99.90;;;;;;5012853;28;20411;-68
2022/02/21 10:47:36;;;;;;;0.80;0.77;;;6.80;99.90;;;;;;5013041;28;20175;-68
2022/02/21 10:50:04;;;;;;;1.27;1.17;;;6.50;99.90;;;;;;5013172;28;20450;-68
2022/02/21 10:52:40;;;;;;;1.20;1.10;;;6.50;99.90;;;;;;5012598;28;20583;-69
2022/02/21 10:55:09;;;;;;;0.70;0.70;;;6.40;99.90;;;;;;5012863;28;20471;-69
2022/02/21 10:57:42;;;;;;;1.57;1.20;;;6.40;99.90;;;;;;5012871;28;20407;-68
2022/02/21 11:00:10;;;;;;;7.03;2.17;;;6.30;99.90;;;;;;5012812;28;20418;-68
2022/02/21 11:02:38;;;;;;;1.63;1.07;;;6.40;99.90;;;;;;5012663;28;20442;-69
2022/02/21 11:05:06;;;;;;;4.00;1.37;;;6.50;99.90;;;;;;5012579;28;20465;-69
2022/02/21 11:07:31;;;;;;;1.43;0.80;;;6.60;99.90;;;;;;5012607;28;20747;-68
2022/02/21 11:10:01;;;;;;;1.93;1.10;;;6.60;99.90;;;;;;5012459;28;20494;-68
2022/02/21 11:12:32;;;;;;;2.00;1.07;;;6.80;99.90;;;;;;5012506;28;20311;-69
2022/02/21 11:15:00;;;;;;;1.33;0.90;;;6.50;99.90;;;;;;5012348;28;20818;-69
2022/02/21 11:17:26;;;;;;;1.83;1.30;;;6.50;99.90;;;;;;5012262;28;20831;-68
2022/02/21 11:19:52;;;;;;;0.70;0.70;;;6.50;99.90;;;;;;5012374;28;20541;-68
2022/02/21 11:22:18;;;;;;;0.90;0.87;;;6.40;99.90;;;;;;5012281;28;20465;-68
2022/02/21 11:24:50;;;;;;;1.90;0.83;;;6.40;99.90;;;;;;5012320;28;20406;-68
2022/02/21 11:27:37;;;;;;;2.53;1.50;;;6.60;99.90;;;;;;5012447;28;20180;-68
2022/02/21 11:30:21;;;;;;;1.30;1.20;;;6.60;99.90;;;;;;5012076;28;20961;-68
2022/02/21 11:33:10;;;;;;;3.33;1.00;;;6.50;99.90;;;;;;5012243;28;20469;-68
2022/02/21 11:35:39;;;;;;;1.33;0.90;;;6.50;99.90;;;;;;5012306;28;20399;-68
2022/02/21 11:38:19;;;;;;;11.83;2.63;;;6.60;99.90;;;;;;5012366;28;20769;-69
2022/02/21 11:40:58;;;;;;;1.93;1.50;;;6.50;99.90;;;;;;5012659;28;20431;-68
2022/02/21 11:43:30;;;;;;;1.43;1.27;;;6.60;99.90;;;;;;5012262;28;20457;-69
2022/02/21 11:45:57;;;;;;;1.47;0.80;;;6.60;99.90;;;;;;5012151;28;20758;-69
2022/02/21 11:48:22;;;;;;;2.50;1.63;;;6.60;99.90;;;;;;5012209;28;20395;-69
2022/02/21 11:50:48;;;;;;;1.57;1.10;;;6.70;99.90;;;;;;5012102;28;20420;-69
2022/02/21 11:53:25;;;;;;;1.63;1.10;;;6.60;99.90;;;;;;5011973;28;20176;-68
2022/02/21 11:55:52;;;;;;;1.90;0.90;;;6.70;99.90;;;;;;5011926;28;20172;-68
2022/02/21 11:58:18;;;;;;;2.50;0.87;;;6.80;99.90;;;;;;5017226;28;20784;-68
2022/02/21 12:00:45;;;;;;;1.20;1.10;;;6.70;99.90;;;;;;5018381;28;20925;-68
2022/02/21 12:03:25;;;;;;;4.97;1.40;;;6.70;99.90;;;;;;5018394;28;20924;-68
2022/02/21 12:05:57;;;;;;;1.60;1.03;;;6.60;99.90;;;;;;5018658;28;20464;-68
2022/02/21 12:08:31;;;;;;;1.23;0.80;;;6.70;99.90;;;;;;5018547;28;20411;-68
2022/02/21 12:11:17;;;;;;;1.03;0.93;;;6.80;99.90;;;;;;5018382;28;20434;-68
2022/02/21 12:13:47;;;;;;;1.27;1.17;;;6.80;99.90;;;;;;5018168;28;20894;-68
2022/02/21 12:16:14;;;;;;;7.07;1.57;;;6.80;99.90;;;;;;5018771;28;20410;-67
2022/02/21 12:18:40;;;;;;;1.53;1.20;;;6.90;99.90;;;;;;5018556;28;20826;-68
2022/02/21 12:21:24;;;;;;;1.90;0.80;;;7.00;99.90;;;;;;5018072;28;20442;-69
2022/02/21 12:23:53;;;;;;;12.13;1.87;;;6.90;99.90;;;;;;5018433;28;20881;-69
2022/02/21 12:26:19;;;;;;;6.07;1.10;;;6.90;99.90;;;;;;5018278;28;20462;-68
2022/02/21 12:29:12;;;;;;;1.00;0.90;;;6.90;99.90;;;;;;5018344;28;20459;-68
2022/02/21 12:31:41;;;;;;;2.10;1.33;;;6.90;99.90;;;;;;5018520;28;20485;-68
2022/02/21 12:34:08;;;;;;;5.13;1.23;;;7.00;99.90;;;;;;5018122;28;20438;-68
2022/02/21 12:36:39;;;;;;;3.13;1.63;;;6.80;99.90;;;;;;5018161;28;20411;-68
2022/02/21 12:39:07;;;;;;;2.53;0.70;;;6.80;99.90;;;;;;5018356;28;20493;-67
2022/02/21 12:41:36;;;;;;;1.10;0.97;;;6.80;99.90;;;;;;5017990;28;20431;-68
2022/02/21 12:44:15;;;;;;;1.47;1.03;;;6.80;99.90;;;;;;5017961;28;20723;-68
2022/02/21 12:46:46;;;;;;;4.87;1.10;;;6.70;99.90;;;;;;5017996;28;20439;-68
2022/02/21 12:49:25;;;;;;;2.70;1.00;;;6.80;99.90;;;;;;5017935;28;20835;-67
2022/02/21 12:51:53;;;;;;;1.23;0.70;;;6.70;99.90;;;;;;5018102;28;20411;-68
2022/02/21 12:54:19;;;;;;;1.50;1.00;;;6.70;99.90;;;;;;5017987;28;20837;-67